Tiempo atmosférico en la estación meteorológica de Gotarrendura , Ávila (920 m.)



Fecha
DESCASC
Temp. máxima en grados centígrados (hora)
DESCASC
Temp. mínima en grados centígrados (hora)
DESCASC
Temp. media en grados centígrados
DESCASC
Racha de viento máxima en m/sg (hora)
DESCASC
Velocidad máxima media en intervalos de 10 minutos(hora)
DESCASC
Precipitaciones diarias en mm
DESCASC
Precipitaciones de 00:00 a 06:00 en mm
DESCASC
Precipitaciones de 06:00 a 12:00 en mm
DESCASC
Precipitaciones de 12:00 a 18:00 en mm
DESCASC
Precipitaciones de 18:00 a 24:00 en mm
DESCASC
23-10-2019 8.4 (13:50) 5.6 (00:00) 7 10.56 (00:40) 7.5 (09:20) 14.6 4.4 9 0.8 0.4
14-11-2019 7.3 (00:00) 2.3 (00:00) 4.8 21.39 (17:00) 15 (16:20) 3.8 0.8 2.4 0.6 0
20-10-2019 10.7 (00:00) 3.7 (00:00) 7.2 12.5 (00:50) 9.44 (00:50) 2.6 0 1.4 0.8 0.4
29-10-2019 17.4 (16:30) 9.3 (00:00) 13.3 5.83 (16:40) 3.89 (17:10) 1.4 0 1.4 0 0
13-11-2019 12.5 (16:20) 7.3 (00:00) 9.9 20.28 (03:10) 13.61 (04:10) 4 2.8 1.2 0 0
21-10-2019 13.9 (12:40) 1 (00:00) 7.4 8.06 (15:50) 4.44 (17:40) 1.6 0 0.2 1.4 0
22-10-2019 7.8 (15:40) 0 (00:00) 3.9 7.78 (20:10) 5 (20:40) 3.8 0 0.2 0 3.6
12-11-2019 9.9 (15:50) 0.1 (00:00) 5 17.78 (23:50) 10.28 (23:59) 2.8 0 0.2 0 2.6
02-11-2019 16.8 (14:20) 11.1 (00:00) 13.9 16.11 (17:40) 10.83 (17:40) 0.4 0 0.2 0.2 0
06-11-2019 11 (15:00) 4.2 (00:00) 7.6 11.39 (23:30) 7.78 (00:20) 0 0 0 0 0
16-11-2019 6.7 (15:30) -0.5 (-00:0) 3.1 9.17 (15:00) 6.39 (17:30) 0 0 0 0 0
07-11-2019 10.3 (02:30) 1.2 (00:00) 5.8 18.33 (16:30) 13.33 (16:30) 3.6 0 0 0.2 3.4
08-11-2019 8.7 (15:40) 1.3 (00:00) 5 13.89 (15:10) 10.56 (15:30) 0 0 0 0 0
09-11-2019 8.3 (16:10) 1.9 (00:00) 5.1 14.17 (17:40) 10.28 (17:20) 3.4 0 0 3.4 0
10-11-2019 5.7 (00:40) 1.9 (00:00) 3.8 15 (11:30) 11.11 (00:40) 0.8 0 0 0.8 0
11-11-2019 11.5 (15:30) 2.2 (23:00) 6.9 11.67 (12:00) 8.89 (11:30) 0.2 0.2 0 0 0
15-11-2019 5.8 (15:20) 0.5 (00:00) 3.2 12.78 (14:10) 10 (02:40) 0.2 0.2 0 0 0
18-10-2019 17 (14:20) 11.3 (00:00) 14.2 9.44 (08:20) 7.5 (08:20) 0 0 0 0 0
05-11-2019 11.3 (15:30) 5.4 (00:00) 8.4 17.78 (15:50) 13.89 (16:20) 0 0 0 0 0
04-11-2019 17.4 (15:10) 6.8 (00:00) 12.1 20.28 (16:30) 13.89 (16:30) 1.2 0 0 1.2 0
03-11-2019 12.4 (23:59) 9.4 (00:00) 10.9 20 (05:30) 15.28 (07:30) 0 0 0 0 0
01-11-2019 18.7 (14:50) 13.4 (00:00) 16.1 15.83 (16:50) 11.39 (16:10) 0 0 0 0 0
31-10-2019 18.2 (13:40) 12.1 (05:50) 15.2 8.89 (21:40) 6.67 (23:40) 0.4 0 0 0 0.4
30-10-2019 16.6 (13:50) 10.7 (00:00) 13.7 9.44 (22:50) 7.22 (22:50) 0.6 0 0 0.2 0.4
28-10-2019 20.1 (14:10) 9.8 (00:00) 15 6.11 (15:00) 3.89 (15:50) 0 0 0 0 0
27-10-2019 20.8 (14:30) 7.8 (00:00) 14.3 6.11 (10:20) 3.89 (09:40) 0 0 0 0 0
26-10-2019 22.6 (15:30) 7.2 (00:00) 14.9 7.78 (11:20) 4.72 (10:30) 0 0 0 0 0
25-10-2019 19.9 (17:20) 5.8 (00:00) 12.8 5.28 (05:10) 3.61 (05:10) 0 0 0 0 0
24-10-2019 13.6 (16:50) 4.8 (00:00) 9.2 9.17 (12:40) 6.67 (11:10) 3 3 0 0 0
19-10-2019 19.7 (16:10) 9.4 (00:00) 14.6 12.78 (16:20) 9.72 (23:59) 0.8 0 0 0 0.8

Gráficas

Temp. máximas Temp. mínimas Temp. medias Precipitaciones Rachas de viento máximas Velocidades máximas media en intervalos de 10 minutos

Datos horarios

Fecha y hora oficial Temperatura (ºC) Velocidad del viento (km/h) Dirección del viento Racha (km/h) Dirección de racha Precipitación (mm) Presión (hPa) Tendencia (hPa) Humedad (%)
2019-11-16 23:00:00 2 9 Sudoeste 15 Sudoeste 0 -- -- 87
2019-11-16 22:00:00 1.3 11 Sudoeste 16 Sudoeste 0 -- -- 87
2019-11-16 21:00:00 1.2 7 Sudoeste 18 Sudoeste 0 -- -- 87
2019-11-16 20:00:00 2.2 15 Oeste 21 Oeste 0 -- -- 86
2019-11-16 19:00:00 2.5 8 Sudoeste 24 Oeste 0 -- -- 86
2019-11-16 18:00:00 4 19 Oeste 33 Oeste 0 -- -- 81
2019-11-16 17:00:00 6 20 Oeste 25 Oeste 0 -- -- 66
2019-11-16 16:00:00 6.4 19 Oeste 32 Oeste 0 -- -- 65
2019-11-16 15:00:00 6.4 22 Oeste 33 Oeste 0 -- -- 64
2019-11-16 14:00:00 6.5 19 Oeste 30 Sudoeste 0 -- -- 67
2019-11-16 13:00:00 5.4 15 Oeste 23 Oeste 0 -- -- 70
2019-11-16 12:00:00 4.6 12 Oeste 23 Oeste 0 -- -- 71
2019-11-16 11:00:00 3.7 15 Oeste 23 Oeste 0 -- -- 77
2019-11-16 10:00:00 2.3 13 Oeste 16 Oeste 0 -- -- 84
2019-11-16 09:00:00 0.4 6 Sudoeste 12 Oeste 0 -- -- 91
2019-11-16 08:00:00 -0.4 4 Sudoeste 13 Oeste 0 -- -- 93
2019-11-16 07:00:00 0 10 Oeste 20 Oeste 0 -- -- 94
2019-11-16 06:00:00 0.7 17 Oeste 23 Oeste 0 -- -- 95
2019-11-16 05:00:00 0.6 12 Oeste 18 Oeste 0 -- -- 95
2019-11-16 04:00:00 0.2 9 Oeste 12 Oeste 0 -- -- 97
2019-11-16 03:00:00 -0.3 6 Oeste 17 Oeste 0 -- -- 96
2019-11-16 02:00:00 0.2 14 Oeste 19 Oeste 0 -- -- 95
2019-11-16 01:00:00 0.6 10 Oeste 21 Oeste 0 -- -- 94
2019-11-16 00:00:00 0.9 15 Oeste 27 Oeste 0 -- -- 94
2019-11-15 23:00:00 1.6 22 Oeste 30 Oeste 0 -- -- 91
2019-11-15 22:00:00 1.9 22 Oeste 41 Oeste 0 -- -- 91
2019-11-15 21:00:00 2.3 23 Oeste 33 Oeste 0 -- -- 87
2019-11-15 20:00:00 2.8 19 Sudoeste 30 Oeste 0 -- -- 85
2019-11-15 19:00:00 3.2 23 Oeste 31 Oeste 0 -- -- 81
2019-11-15 18:00:00 3.7 17 Oeste 35 Oeste 0 -- -- 78
2019-11-15 17:00:00 4.9 25 Oeste 41 Oeste 0 -- -- 73
2019-11-15 16:00:00 5.4 26 Oeste 39 Oeste 0 -- -- 70
2019-11-15 15:00:00 5.4 28 Oeste 46 Oeste 0 -- -- 73
2019-11-15 14:00:00 5.1 25 Oeste 41 Oeste 0 -- -- 76
2019-11-15 13:00:00 5 27 Oeste 39 Oeste 0 -- -- 80
2019-11-15 12:00:00 4.3 27 Oeste 39 Sudoeste 0 -- -- 85
2019-11-15 11:00:00 2.8 29 Oeste 39 Sudoeste 0 -- -- 91
2019-11-15 10:00:00 1.4 25 Oeste 35 Sudoeste 0 -- -- 95
2019-11-15 09:00:00 1.1 23 Oeste 35 Oeste 0 -- -- 93
2019-11-15 08:00:00 0.7 23 Oeste 37 Oeste 0 -- -- 92
2019-11-15 07:00:00 0.7 27 Oeste 38 Oeste 0 -- -- 94
2019-11-15 06:00:00 1.3 26 Oeste 37 Oeste 0 -- -- 94
2019-11-15 05:00:00 1.5 27 Oeste 42 Oeste 0 -- -- 94
2019-11-15 04:00:00 1.3 31 Oeste 42 Oeste 0 -- -- 96
2019-11-15 03:00:00 1.2 30 Oeste 45 Sudoeste 0 -- -- 96
2019-11-15 02:00:00 1.9 33 Oeste 46 Oeste 0.2 -- -- 95
2019-11-15 01:00:00 1.9 33 Oeste 45 Oeste 0 -- -- 94
2019-11-15 00:00:00 2.5 32 Oeste 54 Oeste 0 -- -- 92
2019-11-14 23:00:00 3.1 33 Oeste 44 Oeste 0 -- -- 89
2019-11-14 22:00:00 3.4 35 Oeste 57 Sudoeste 0 -- -- 88
2019-11-14 21:00:00 3.7 35 Oeste 53 Oeste 0 -- -- 88
2019-11-14 20:00:00 3.7 42 Oeste 58 Oeste 0 -- -- 87
2019-11-14 19:00:00 3.8 46 Oeste 65 Oeste 0 -- -- 88
2019-11-14 18:00:00 4.2 51 Oeste 68 Oeste 0 -- -- 85
2019-11-14 17:00:00 4 50 Oeste 77 Oeste 0.2 -- -- 87
2019-11-14 16:00:00 3.7 34 Oeste 59 Oeste 0.4 -- -- 92
2019-11-14 15:00:00 4.5 40 Oeste 65 Oeste 0 -- -- 81
2019-11-14 14:00:00 5.1 41 Oeste 57 Oeste 0 -- -- 75
2019-11-14 13:00:00 5.3 34 Oeste 53 Oeste 0 -- -- 81
2019-11-14 12:00:00 4.7 30 Oeste 49 Oeste 0 -- -- 82
2019-11-14 11:00:00 3.7 32 Oeste 46 Oeste 0 -- -- 83
2019-11-14 10:00:00 3.1 34 Oeste 44 Oeste 0 -- -- 87
2019-11-14 09:00:00 2.6 23 Oeste 44 Oeste 0 -- -- 91
2019-11-14 08:00:00 3 33 Oeste 47 Oeste 0 -- -- 88
2019-11-14 07:00:00 3 32 Noroeste 53 Noroeste 2.4 -- -- 91
2019-11-14 06:00:00 2.6 30 Noroeste 66 Oeste 0.8 -- -- 95
2019-11-14 05:00:00 6.2 23 Oeste 45 Oeste 0 -- -- 89
2019-11-14 04:00:00 6.5 22 Sudoeste 40 Oeste 0 -- -- 81
2019-11-14 03:00:00 6.5 31 Oeste 48 Oeste 0 -- -- 80
2019-11-14 02:00:00 6.1 14 Sudoeste 35 Oeste 0 -- -- 83
2019-11-14 01:00:00 6.3 23 Oeste 47 Oeste 0 -- -- 86
2019-11-14 00:00:00 7.3 33 Oeste 49 Oeste 0 -- -- 85
2019-11-13 23:00:00 8.4 30 Oeste 40 Oeste 0 -- -- 90
2019-11-13 22:00:00 9 28 Oeste 39 Oeste 0 -- -- 89
2019-11-13 21:00:00 8.5 19 Oeste 28 Oeste 0 -- -- 88
2019-11-13 20:00:00 8.5 10 Oeste 19 Oeste 0 -- -- 87
2019-11-13 19:00:00 9.1 14 Oeste 27 Oeste 0 -- -- 86
2019-11-13 18:00:00 11 23 Oeste 30 Oeste 0 -- -- 77
2019-11-13 17:00:00 11.8 14 Noroeste 22 Oeste 0 -- -- 78
2019-11-13 16:00:00 12 15 Noroeste 26 Oeste 0 -- -- 75
2019-11-13 15:00:00 12 15 Noroeste 26 Oeste 0 -- -- 72
2019-11-13 14:00:00 11.5 8 Oeste 17 Oeste 0 -- -- 74
2019-11-13 13:00:00 10.7 4 Noroeste 10 Oeste 0 -- -- 78
2019-11-13 12:00:00 9.8 7 Norte 20 Nordeste 0 -- -- 79
2019-11-13 11:00:00 9.3 10 Nordeste 25 Norte 0 -- -- 86
2019-11-13 10:00:00 9.5 22 Norte 37 Noroeste 0 -- -- 92
2019-11-13 09:00:00 10.1 32 Noroeste 54 Noroeste 0.4 -- -- 96
2019-11-13 08:00:00 10.3 33 Oeste 52 Noroeste 0.4 -- -- 97
2019-11-13 07:00:00 10.5 40 Oeste 59 Oeste 0.4 -- -- 96
2019-11-13 06:00:00 10.1 32 Oeste 53 Oeste 2 -- -- 97
2019-11-13 05:00:00 10 42 Oeste 68 Oeste 0 -- -- 96
2019-11-13 04:00:00 10 48 Oeste 73 Oeste 0 -- -- 93
2019-11-13 03:00:00 10 42 Oeste 63 Oeste 0 -- -- 91
2019-11-13 02:00:00 9.7 38 Oeste 59 Oeste 0.8 -- -- 91
2019-11-13 01:00:00 9.5 31 Oeste 55 Oeste 0 -- -- 92
2019-11-13 00:00:00 9.5 37 Oeste 64 Oeste 0.4 -- -- 90
2019-11-12 23:00:00 8.5 27 Oeste 49 Oeste 0.8 -- -- 95
2019-11-12 22:00:00 8.2 22 Oeste 38 Oeste 0.4 -- -- 95
2019-11-12 21:00:00 7.8 26 Oeste 38 Oeste 0.6 -- -- 95
2019-11-12 20:00:00 7.8 22 Oeste 31 Oeste 0.4 -- -- 91
2019-11-12 19:00:00 7.6 14 Oeste 32 Oeste 0 -- -- 90
2019-11-12 18:00:00 7.6 17 Oeste 36 Oeste 0 -- -- 85
2019-11-12 17:00:00 8.9 23 Oeste 33 Oeste 0 -- -- 71
2019-11-12 16:00:00 9.5 27 Oeste 36 Oeste 0 -- -- 66
2019-11-12 15:00:00 9.8 23 Noroeste 31 Oeste 0 -- -- 66
2019-11-12 14:00:00 9.1 19 Oeste 28 Oeste 0 -- -- 66
2019-11-12 13:00:00 8.5 12 Noroeste 20 Oeste 0 -- -- 69
2019-11-12 12:00:00 7.1 8 Noroeste 13 Noroeste 0 -- -- 73
2019-11-12 11:00:00 6.4 8 Norte 14 Noroeste 0 -- -- 75
2019-11-12 10:00:00 5 8 Oeste 11 Sudoeste 0 -- -- 82
2019-11-12 09:00:00 2.4 6 Sudoeste 12 Sudoeste 0.2 -- -- 98
2019-11-12 08:00:00 1 6 Oeste 12 Oeste 0 -- -- 99
2019-11-12 07:00:00 0.8 5 Oeste 8 Oeste 0 -- -- 99
2019-11-12 06:00:00 0.2 2 Noroeste 4 Sudoeste 0 -- -- 98
2019-11-12 05:00:00 1.1 3 Sudoeste 5 Sudoeste 0 -- -- 98
2019-11-12 04:00:00 1.4 3 Sudoeste 8 Sudoeste 0 -- -- 98
2019-11-12 03:00:00 1.7 5 Sudoeste 6 Sudoeste 0 -- -- 97
2019-11-12 02:00:00 2.5 4 Sudoeste 8 Oeste 0 -- -- 98
2019-11-12 01:00:00 3 2 Oeste 6 Sudoeste 0 -- -- 98
2019-11-12 00:00:00 2.8 0 Calma 3 Sudoeste 0 -- -- 99
2019-11-11 23:00:00 2.2 0 Calma 8 Sudoeste 0 -- -- 97
2019-11-11 22:00:00 2.9 3 Sudoeste 10 Sudoeste 0 -- -- 97
2019-11-11 21:00:00 4 3 Sudoeste 5 Sudoeste 0 -- -- 95
2019-11-11 20:00:00 5.6 3 Nordeste 12 Nordeste 0 -- -- 94
2019-11-11 19:00:00 7.1 6 Noroeste 9 Norte 0 -- -- 88
2019-11-11 18:00:00 9.1 8 Norte 28 Norte 0 -- -- 84
2019-11-11 17:00:00 10.8 20 Norte 28 Norte 0 -- -- 79
2019-11-11 16:00:00 11.1 18 Norte 32 Norte 0 -- -- 82
2019-11-11 15:00:00 11 18 Noroeste 32 Noroeste 0 -- -- 87
2019-11-11 14:00:00 10.3 27 Noroeste 36 Oeste 0 -- -- 95
2019-11-11 13:00:00 9.5 31 Oeste 41 Oeste 0 -- -- 98
2019-11-11 12:00:00 8.6 31 Oeste 42 Oeste 0 -- -- 98
2019-11-11 11:00:00 8.2 28 Oeste 36 Oeste 0 -- -- 96
2019-11-11 10:00:00 7.1 19 Oeste 26 Oeste 0 -- -- 99
2019-11-11 09:00:00 5.3 0 Calma 7 Sur 0 -- -- 99
2019-11-11 08:00:00 4.9 2 Sur 5 Sudoeste 0 -- -- 98
2019-11-11 07:00:00 4.7 0 Calma 7 Noroeste 0 -- -- 97
2019-11-11 06:00:00 4.6 6 Oeste 10 Oeste 0.2 -- -- 97
2019-11-11 05:00:00 4.3 9 Oeste 11 Oeste 0 -- -- 97
2019-11-11 04:00:00 4.1 9 Oeste 14 Oeste 0 -- -- 97
2019-11-11 03:00:00 3.3 4 Oeste 15 Oeste 0 -- -- 98
2019-11-11 02:00:00 2.9 5 Oeste 20 Noroeste 0 -- -- 97
2019-11-11 01:00:00 3.3 15 Oeste 19 Oeste 0 -- -- 97
2019-11-11 00:00:00 3 11 Oeste 18 Noroeste 0 -- -- 97
2019-11-10 23:00:00 3 14 Oeste 23 Oeste 0 -- -- 97
2019-11-10 22:00:00 3.5 18 Oeste 28 Oeste 0 -- -- 95
2019-11-10 21:00:00 4.1 23 Oeste 33 Oeste 0 -- -- 94
2019-11-10 20:00:00 4.7 24 Oeste 39 Oeste 0 -- -- 93
2019-11-10 19:00:00 4.8 29 Oeste 35 Oeste 0 -- -- 91
2019-11-10 18:00:00 4.7 18 Noroeste 36 Noroeste 0 -- -- 93
2019-11-10 17:00:00 5.4 13 Noroeste 31 Noroeste 0 -- -- 88
2019-11-10 16:00:00 5.1 19 Noroeste 44 Noroeste 0.8 -- -- 88
2019-11-10 15:00:00 5.2 29 Noroeste 48 Oeste 0 -- -- 90
2019-11-10 14:00:00 5.3 38 Noroeste 49 Oeste 0 -- -- 85
2019-11-10 13:00:00 5.2 31 Noroeste 46 Oeste 0 -- -- 86
2019-11-10 12:00:00 4.7 33 Oeste 54 Oeste 0 -- -- 90
2019-11-10 11:00:00 4.2 32 Oeste 47 Oeste 0 -- -- 90
2019-11-10 10:00:00 3.8 36 Oeste 46 Oeste 0 -- -- 89
2019-11-10 09:00:00 2.9 27 Oeste 39 Oeste 0 -- -- 90
2019-11-10 08:00:00 2.4 27 Oeste 36 Oeste 0 -- -- 91
2019-11-10 07:00:00 2 23 Oeste 29 Oeste 0 -- -- 93
2019-11-10 06:00:00 2.4 21 Oeste 29 Oeste 0 -- -- 90
2019-11-10 05:00:00 2.7 22 Oeste 29 Oeste 0 -- -- 91
2019-11-10 04:00:00 3.7 20 Noroeste 31 Oeste 0 -- -- 94
2019-11-10 03:00:00 4.5 26 Noroeste 41 Noroeste 0 -- -- 94
2019-11-10 02:00:00 5.2 29 Noroeste 48 Oeste 0 -- -- 93
2019-11-10 01:00:00 5.6 38 Oeste 50 Oeste 0 -- -- 90
2019-11-10 00:00:00 5.6 34 Oeste 44 Oeste 0 -- -- 90
2019-11-09 23:00:00 5.9 30 Oeste 49 Oeste 0 -- -- 90
2019-11-09 22:00:00 6.5 28 Oeste 41 Noroeste 0 -- -- 91
2019-11-09 21:00:00 6.9 22 Oeste 40 Oeste 0 -- -- 93
2019-11-09 20:00:00 7.5 27 Oeste 41 Noroeste 0 -- -- 95
2019-11-09 19:00:00 7.6 28 Oeste 43 Oeste 0 -- -- 95
2019-11-09 18:00:00 7.7 35 Oeste 51 Oeste 0 -- -- 94
2019-11-09 17:00:00 7.9 32 Oeste 46 Oeste 0.2 -- -- 96
2019-11-09 16:00:00 8.1 19 Noroeste 31 Oeste 1.2 -- -- 97
2019-11-09 15:00:00 7.8 22 Oeste 38 Oeste 0.2 -- -- 95
2019-11-09 14:00:00 7.3 23 Oeste 37 Oeste 1 -- -- 96
2019-11-09 13:00:00 6.6 16 Oeste 21 Oeste 0.8 -- -- 96
2019-11-09 12:00:00 7.1 15 Oeste 28 Oeste 0 -- -- 85
2019-11-09 11:00:00 6.5 19 Oeste 39 Oeste 0 -- -- 81
2019-11-09 10:00:00 5.6 24 Oeste 33 Oeste 0 -- -- 81
2019-11-09 09:00:00 4.2 16 Oeste 23 Oeste 0 -- -- 84
2019-11-09 08:00:00 2.3 10 Oeste 18 Oeste 0 -- -- 90
2019-11-09 07:00:00 2.4 11 Oeste 23 Oeste 0 -- -- 90
2019-11-09 06:00:00 3.2 17 Oeste 27 Oeste 0 -- -- 89
2019-11-09 05:00:00 3.3 22 Oeste 29 Oeste 0 -- -- 90
2019-11-09 04:00:00 3.2 13 Oeste 30 Oeste 0 -- -- 89
2019-11-09 03:00:00 3.1 15 Oeste 28 Oeste 0 -- -- 91
2019-11-09 02:00:00 2.5 16 Oeste 30 Oeste 0 -- -- 91
2019-11-09 01:00:00 2.5 19 Oeste 29 Oeste 0 -- -- 91
2019-11-09 00:00:00 2.8 23 Oeste 32 Oeste 0 -- -- 90
2019-11-08 23:00:00 3.2 23 Oeste 31 Oeste 0 -- -- 87
2019-11-08 22:00:00 3.4 18 Oeste 31 Oeste 0 -- -- 86
2019-11-08 21:00:00 3.8 24 Oeste 36 Oeste 0 -- -- 84
2019-11-08 20:00:00 4.9 28 Oeste 42 Oeste 0 -- -- 81
2019-11-08 19:00:00 5.4 24 Oeste 34 Oeste 0 -- -- 80
2019-11-08 18:00:00 6.1 28 Oeste 45 Oeste 0 -- -- 74
2019-11-08 17:00:00 7.3 32 Oeste 47 Sudoeste 0 -- -- 69
2019-11-08 16:00:00 8.1 37 Oeste 50 Sudoeste 0 -- -- 63
2019-11-08 15:00:00 8.1 36 Oeste 47 Oeste 0 -- -- 68
2019-11-08 14:00:00 7.4 34 Oeste 45 Oeste 0 -- -- 70
2019-11-08 13:00:00 6.7 31 Oeste 41 Sudoeste 0 -- -- 75
2019-11-08 12:00:00 5.4 33 Oeste 43 Oeste 0 -- -- 82
2019-11-08 11:00:00 4.6 35 Oeste 45 Oeste 0 -- -- 84
2019-11-08 10:00:00 3.2 33 Oeste 46 Sudoeste 0 -- -- 89
2019-11-08 09:00:00 2 29 Oeste 40 Oeste 0 -- -- 91
2019-11-08 08:00:00 1.4 23 Oeste 36 Oeste 0 -- -- 91
2019-11-08 07:00:00 1.3 26 Oeste 44 Oeste 0 -- -- 90
2019-11-08 06:00:00 1.3 26 Oeste 45 Oeste 0 -- -- 90
2019-11-08 05:00:00 1.6 34 Oeste 47 Oeste 0 -- -- 89
2019-11-08 04:00:00 1.6 32 Oeste 46 Oeste 0 -- -- 89
2019-11-08 03:00:00 2.1 29 Oeste 40 Oeste 0 -- -- 87
2019-11-08 02:00:00 2.5 14 Sudoeste 33 Oeste 0 -- -- 88
2019-11-08 01:00:00 2.7 25 Oeste 39 Oeste 0 -- -- 88
2019-11-08 00:00:00 3.1 24 Oeste 37 Oeste 0 -- -- 88
2019-11-07 23:00:00 3.1 24 Oeste 37 Oeste 0 -- -- 89
2019-11-07 22:00:00 3.3 29 Oeste 38 Oeste 0 -- -- 91
2019-11-07 21:00:00 2.9 23 Oeste 38 Sudoeste 0 -- -- 92
2019-11-07 20:00:00 2.4 17 Sudoeste 45 Oeste 3.2 -- -- 96
2019-11-07 19:00:00 5 25 Oeste 36 Oeste 0.2 -- -- 89
2019-11-07 18:00:00 4.4 24 Oeste 46 Oeste 0.2 -- -- 90
2019-11-07 17:00:00 5.3 30 Oeste 66 Oeste 0 -- -- 86
2019-11-07 16:00:00 7.3 40 Oeste 61 Sudoeste 0 -- -- 71
2019-11-07 15:00:00 9.6 39 Oeste 56 Sudoeste 0 -- -- 54
2019-11-07 14:00:00 8.4 37 Oeste 54 Oeste 0 -- -- 58
2019-11-07 13:00:00 8.5 41 Oeste 58 Oeste 0 -- -- 59
2019-11-07 12:00:00 7.8 38 Oeste 54 Oeste 0 -- -- 66
2019-11-07 11:00:00 6.4 38 Oeste 54 Oeste 0 -- -- 74
2019-11-07 10:00:00 6.3 41 Oeste 52 Oeste 0 -- -- 77
2019-11-07 09:00:00 5.6 26 Oeste 38 Oeste 0 -- -- 83
2019-11-07 08:00:00 6.5 26 Oeste 37 Oeste 0 -- -- 83
2019-11-07 07:00:00 7.5 29 Oeste 41 Oeste 0 -- -- 82
2019-11-07 06:00:00 8.8 25 Oeste 37 Oeste 0 -- -- 92
2019-11-07 05:00:00 9.3 22 Oeste 38 Oeste 0 -- -- 94
2019-11-07 04:00:00 9.6 22 Oeste 40 Oeste 0 -- -- 92
2019-11-07 03:00:00 10 27 Oeste 41 Oeste 0 -- -- 90
2019-11-07 02:00:00 9.8 22 Oeste 36 Oeste 0 -- -- 89
2019-11-07 01:00:00 9.7 20 Sudoeste 41 Oeste 0 -- -- 88
2019-11-07 00:00:00 9.9 22 Oeste 41 Oeste 0 -- -- 86
2019-11-06 23:00:00 9.5 13 Sudoeste 22 Sudoeste 0 -- -- 84
2019-11-06 22:00:00 9.1 14 Oeste 27 Oeste 0 -- -- 84
2019-11-06 21:00:00 9.2 18 Oeste 28 Oeste 0 -- -- 81
2019-11-06 20:00:00 9.2 11 Sudoeste 22 Oeste 0 -- -- 77
2019-11-06 19:00:00 8.7 9 Oeste 25 Oeste 0 -- -- 77
2019-11-06 18:00:00 8.9 25 Oeste 35 Oeste 0 -- -- 77
2019-11-06 17:00:00 9.9 24 Oeste 34 Oeste 0 -- -- 70
2019-11-06 16:00:00 10.6 24 Oeste 36 Oeste 0 -- -- 65
2019-11-06 15:00:00 11 19 Oeste 29 Oeste 0 -- -- 63
2019-11-06 14:00:00 10.6 19 Oeste 30 Oeste 0 -- -- 59
2019-11-06 13:00:00 10 17 Oeste 30 Oeste 0 -- -- 63
2019-11-06 12:00:00 9.1 21 Oeste 31 Oeste 0 -- -- 71
2019-11-06 11:00:00 7.9 23 Oeste 31 Oeste 0 -- -- 79
2019-11-06 10:00:00 6.8 19 Oeste 30 Oeste 0 -- -- 86
2019-11-06 09:00:00 6 17 Oeste 26 Oeste 0 -- -- 90
2019-11-06 08:00:00 4.8 15 Oeste 22 Oeste 0 -- -- 93
2019-11-06 07:00:00 4.7 17 Oeste 26 Oeste 0 -- -- 93
2019-11-06 06:00:00 4.7 12 Oeste 24 Oeste 0 -- -- 93
2019-11-06 05:00:00 4.5 22 Oeste 32 Oeste 0 -- -- 94
2019-11-06 04:00:00 4.5 20 Oeste 31 Oeste 0 -- -- 93
2019-11-06 03:00:00 4.9 21 Oeste 34 Oeste 0 -- -- 93
2019-11-06 02:00:00 5.1 25 Oeste 32 Oeste 0 -- -- 93
2019-11-06 01:00:00 5.6 23 Oeste 37 Oeste 0 -- -- 91
2019-11-06 00:00:00 5.9 26 Oeste 33 Oeste 0 -- -- 91
2019-11-05 23:00:00 6.5 27 Oeste 35 Oeste 0 -- -- 90
2019-11-05 22:00:00 6.8 27 Oeste 38 Oeste 0 -- -- 90
2019-11-05 21:00:00 7.3 30 Oeste 41 Oeste 0 -- -- 87
2019-11-05 20:00:00 7.8 29 Oeste 40 Sudoeste 0 -- -- 85
2019-11-05 19:00:00 8.2 27 Oeste 50 Oeste 0 -- -- 81
2019-11-05 18:00:00 9.3 37 Oeste 58 Oeste 0 -- -- 73
2019-11-05 17:00:00 10.8 42 Oeste 62 Oeste 0 -- -- 65
2019-11-05 16:00:00 11.2 49 Oeste 64 Oeste 0 -- -- 66
2019-11-05 15:00:00 10.8 38 Oeste 58 Oeste 0 -- -- 68
2019-11-05 14:00:00 10.3 42 Oeste 59 Oeste 0 -- -- 71
2019-11-05 13:00:00 10.6 45 Oeste 59 Oeste 0 -- -- 72
2019-11-05 12:00:00 9.7 40 Oeste 57 Oeste 0 -- -- 78
2019-11-05 11:00:00 8.7 42 Oeste 54 Oeste 0 -- -- 84
2019-11-05 10:00:00 7.9 41 Sudoeste 57 Sudoeste 0 -- -- 85
2019-11-05 09:00:00 6.5 33 Oeste 50 Sudoeste 0 -- -- 86
2019-11-05 08:00:00 5.9 31 Oeste 47 Sudoeste 0 -- -- 87
2019-11-05 07:00:00 5.5 36 Sudoeste 49 Sudoeste 0 -- -- 87
2019-11-05 06:00:00 5.9 38 Oeste 51 Oeste 0 -- -- 88
2019-11-05 05:00:00 6.2 42 Oeste 57 Oeste 0 -- -- 85
2019-11-05 04:00:00 6.1 29 Sudoeste 45 Sudoeste 0 -- -- 86
2019-11-05 03:00:00 6.1 19 Sudoeste 34 Sudoeste 0 -- -- 85
2019-11-05 02:00:00 6.2 27 Oeste 40 Sudoeste 0 -- -- 86
2019-11-05 01:00:00 6 23 Sudoeste 44 Oeste 0 -- -- 89
2019-11-05 00:00:00 6.8 31 Oeste 46 Sudoeste 0 -- -- 88
2019-11-04 23:00:00 7.1 24 Oeste 45 Sudoeste 0 -- -- 89
2019-11-04 22:00:00 7.9 34 Oeste 46 Oeste 0 -- -- 89
2019-11-04 21:00:00 8.6 27 Oeste 50 Sudoeste 0 -- -- 90
2019-11-04 20:00:00 9.4 28 Sudoeste 42 Oeste 0 -- -- 89
2019-11-04 19:00:00 10 32 Oeste 52 Sudoeste 0 -- -- 87
2019-11-04 18:00:00 10.9 33 Sudoeste 52 Oeste 0.4 -- -- 87
2019-11-04 17:00:00 11.7 34 Oeste 73 Oeste 0.8 -- -- 92
2019-11-04 16:00:00 15.5 42 Sudoeste 69 Sudoeste 0 -- -- 68
2019-11-04 15:00:00 17.3 29 Sudoeste 54 Sudoeste 0 -- -- 58
2019-11-04 14:00:00 16.4 28 Sudoeste 58 Sur 0 -- -- 59
2019-11-04 13:00:00 16 34 Sudoeste 61 Sudoeste 0 -- -- 60
2019-11-04 12:00:00 15.6 33 Sudoeste 59 Sudoeste 0 -- -- 59
2019-11-04 11:00:00 15.2 32 Sudoeste 57 Sudoeste 0 -- -- 62
2019-11-04 10:00:00 13.6 23 Sudoeste 41 Sudoeste 0 -- -- 66
2019-11-04 09:00:00 11.9 25 Sudoeste 49 Sur 0 -- -- 72
2019-11-04 08:00:00 10.6 18 Sudoeste 51 Sudoeste 0 -- -- 81
2019-11-04 07:00:00 11.3 20 Sudoeste 33 Sudoeste 0 -- -- 76
2019-11-04 06:00:00 10.7 15 Sudoeste 35 Sudoeste 0 -- -- 81
2019-11-04 05:00:00 11 19 Sudoeste 40 Oeste 0 -- -- 84
2019-11-04 04:00:00 11 24 Sudoeste 46 Sudoeste 0 -- -- 86
2019-11-04 03:00:00 11.5 27 Sudoeste 47 Sudoeste 0 -- -- 85
2019-11-04 02:00:00 11.8 26 Sudoeste 44 Oeste 0 -- -- 88
2019-11-04 01:00:00 12 18 Sudoeste 41 Sudoeste 0 -- -- 84
2019-11-04 00:00:00 12.4 24 Sudoeste 42 Sudoeste 0 -- -- 82
2019-11-03 23:00:00 11.8 25 Sudoeste 45 Sudoeste 0 -- -- 84
2019-11-03 22:00:00 11.7 27 Sudoeste 45 Sudoeste 0 -- -- 84
2019-11-03 21:00:00 11.2 30 Sudoeste 42 Sudoeste 0 -- -- 81
2019-11-03 20:00:00 11.4 23 Sudoeste 38 Sudoeste 0 -- -- 77
2019-11-03 19:00:00 11.4 19 Sudoeste 45 Sudoeste 0 -- -- 74
2019-11-03 18:00:00 11.3 24 Sudoeste 46 Oeste 0 -- -- 71
2019-11-03 17:00:00 11.7 39 Oeste 58 Sudoeste 0 -- -- 69
2019-11-03 16:00:00 11.9 42 Oeste 59 Oeste 0 -- -- 66
2019-11-03 15:00:00 11.7 40 Oeste 58 Sudoeste 0 -- -- 68
2019-11-03 14:00:00 11.6 41 Oeste 58 Oeste 0 -- -- 70
2019-11-03 13:00:00 11.8 45 Oeste 57 Oeste 0 -- -- 69
2019-11-03 12:00:00 11.3 39 Oeste 54 Oeste 0 -- -- 72
2019-11-03 11:00:00 10.4 33 Oeste 45 Oeste 0 -- -- 77
2019-11-03 10:00:00 9.4 33 Oeste 58 Oeste 0 -- -- 81
2019-11-03 09:00:00 9.5 34 Oeste 53 Oeste 0 -- -- 86
2019-11-03 08:00:00 10.1 42 Oeste 69 Oeste 0 -- -- 92
2019-11-03 07:00:00 11.3 55 Oeste 71 Sudoeste 0 -- -- 92
2019-11-03 06:00:00 11 49 Sudoeste 72 Sudoeste 0 -- -- 92
2019-11-03 05:00:00 11.4 44 Sudoeste 69 Sudoeste 0 -- -- 86
2019-11-03 04:00:00 11 30 Sudoeste 53 Sudoeste 0 -- -- 87
2019-11-03 03:00:00 10.2 30 Sudoeste 56 Sudoeste 0 -- -- 92
2019-11-03 02:00:00 10.4 31 Sudoeste 54 Sudoeste 0 -- -- 90
2019-11-03 01:00:00 11.2 31 Sudoeste 49 Sudoeste 0 -- -- 80
2019-11-03 00:00:00 11.1 28 Sudoeste 43 Sudoeste 0 -- -- 77
2019-11-02 23:00:00 11.5 21 Sudoeste 44 Sudoeste 0 -- -- 78
2019-11-02 22:00:00 11.9 20 Sudoeste 34 Sudoeste 0 -- -- 83
2019-11-02 21:00:00 11.9 26 Oeste 37 Oeste 0 -- -- 83
2019-11-02 20:00:00 11.8 18 Oeste 41 Sudoeste 0 -- -- 85
2019-11-02 19:00:00 12.3 22 Oeste 42 Oeste 0 -- -- 86
2019-11-02 18:00:00 12.4 33 Oeste 58 Oeste 0 -- -- 88
2019-11-02 17:00:00 14.6 19 Sudoeste 47 Sudoeste 0 -- -- 81
2019-11-02 16:00:00 15.2 25 Sudoeste 46 Oeste 0 -- -- 79
2019-11-02 15:00:00 16.2 35 Sudoeste 48 Sudoeste 0 -- -- 70
2019-11-02 14:00:00 15.9 22 Sudoeste 43 Oeste 0.2 -- -- 78
2019-11-02 13:00:00 15.3 18 Sudoeste 39 Sudoeste 0 -- -- 81
2019-11-02 12:00:00 13.6 27 Oeste 43 Oeste 0.2 -- -- 90
2019-11-02 11:00:00 15.1 31 Sudoeste 44 Sudoeste 0 -- -- 80
2019-11-02 10:00:00 14.4 20 Sudoeste 37 Sudoeste 0 -- -- 84
2019-11-02 09:00:00 13.4 15 Sudoeste 28 Sudoeste 0 -- -- 88
2019-11-02 08:00:00 12.4 11 Sudoeste 21 Sudoeste 0 -- -- 88
2019-11-02 07:00:00 12.3 11 Sudoeste 23 Sudoeste 0 -- -- 90
2019-11-02 06:00:00 12.2 12 Sudoeste 19 Oeste 0 -- -- 90
2019-11-02 05:00:00 12.6 13 Sudoeste 32 Sudoeste 0 -- -- 89
2019-11-02 04:00:00 12.9 15 Sudoeste 31 Oeste 0 -- -- 88
2019-11-02 03:00:00 13.2 18 Sudoeste 30 Sudoeste 0 -- -- 89
2019-11-02 02:00:00 13.4 15 Sudoeste 36 Sudoeste 0 -- -- 90
2019-11-02 01:00:00 13.1 11 Sudoeste 27 Sudoeste 0 -- -- 93
2019-11-02 00:00:00 13.5 15 Sudoeste 31 Oeste 0 -- -- 89
2019-11-01 23:00:00 13.5 18 Sudoeste 34 Sudoeste 0 -- -- 89
2019-11-01 22:00:00 14 15 Sudoeste 38 Sudoeste 0 -- -- 87
2019-11-01 21:00:00 14.5 24 Sudoeste 45 Sudoeste 0 -- -- 87
2019-11-01 20:00:00 14.8 28 Sudoeste 47 Oeste 0 -- -- 87
2019-11-01 19:00:00 15.8 23 Sudoeste 38 Sudoeste 0 -- -- 83
2019-11-01 18:00:00 16.3 28 Oeste 54 Sudoeste 0 -- -- 80
2019-11-01 17:00:00 17.2 41 Oeste 57 Sudoeste 0 -- -- 77
2019-11-01 16:00:00 17.6 40 Sudoeste 54 Oeste 0 -- -- 79
2019-11-01 15:00:00 18.5 35 Sudoeste 57 Oeste 0 -- -- 72
2019-11-01 14:00:00 18.3 33 Sudoeste 54 Oeste 0 -- -- 73
2019-11-01 13:00:00 18.4 34 Sudoeste 48 Sudoeste 0 -- -- 74
2019-11-01 12:00:00 18.1 25 Sudoeste 46 Sudoeste 0 -- -- 77
2019-11-01 11:00:00 17.4 26 Sudoeste 45 Oeste 0 -- -- 81
2019-11-01 10:00:00 16 22 Sudoeste 34 Sudoeste 0 -- -- 88
2019-11-01 09:00:00 14.7 14 Sudoeste 30 Sudoeste 0 -- -- 92
2019-11-01 08:00:00 14.2 15 Sudoeste 32 Sudoeste 0 -- -- 94
2019-11-01 07:00:00 14.2 25 Sudoeste 38 Sudoeste 0 -- -- 92
2019-11-01 06:00:00 14.7 24 Oeste 34 Sudoeste 0 -- -- 92
2019-11-01 05:00:00 14.8 18 Sudoeste 31 Oeste 0 -- -- 92
2019-11-01 04:00:00 14.5 25 Sudoeste 35 Sudoeste 0 -- -- 94
2019-11-01 03:00:00 14.6 19 Sudoeste 36 Oeste 0 -- -- 94
2019-11-01 02:00:00 14.8 26 Oeste 39 Sudoeste 0 -- -- 94
2019-11-01 01:00:00 15 30 Oeste 41 Sudoeste 0 -- -- 93
2019-11-01 00:00:00 15 21 Oeste 32 Oeste 0 -- -- 94
2019-10-31 23:00:00 14.9 20 Oeste 32 Sudoeste 0.2 -- -- 95
2019-10-31 22:00:00 14.9 22 Oeste 32 Oeste 0 -- -- 94
2019-10-31 21:00:00 14.7 11 Sudoeste 20 Sudoeste 0.2 -- -- 96
2019-10-31 20:00:00 15.2 16 Oeste 26 Oeste 0 -- -- 91
2019-10-31 19:00:00 16 9 Oeste 21 Oeste 0 -- -- 81
2019-10-31 18:00:00 16.5 14 Oeste 24 Oeste 0 -- -- 77
2019-10-31 17:00:00 17.3 19 Oeste 28 Oeste 0 -- -- 73
2019-10-31 16:00:00 17.4 23 Oeste 32 Sudoeste 0 -- -- 66
2019-10-31 15:00:00 17.8 23 Oeste 30 Oeste 0 -- -- 68
2019-10-31 14:00:00 18 19 Oeste 29 Oeste 0 -- -- 67
2019-10-31 13:00:00 17.7 18 Oeste 27 Oeste 0 -- -- 69
2019-10-31 12:00:00 16.5 20 Oeste 27 Oeste 0 -- -- 73
2019-10-31 11:00:00 15.3 19 Oeste 27 Oeste 0 -- -- 84
2019-10-31 10:00:00 14 12 Oeste 16 Oeste 0 -- -- 91
2019-10-31 09:00:00 13.4 12 Oeste 19 Oeste 0 -- -- 93
2019-10-31 08:00:00 12.4 4 Oeste 19 Oeste 0 -- -- 95
2019-10-31 07:00:00 12.7 17 Sudoeste 24 Sudoeste 0 -- -- 93
2019-10-31 06:00:00 12.1 16 Sudoeste 23 Oeste 0 -- -- 95
2019-10-31 05:00:00 12.4 9 Sudoeste 22 Sudoeste 0 -- -- 94
2019-10-31 04:00:00 13.3 15 Oeste 25 Oeste 0 -- -- 95
2019-10-31 03:00:00 13.9 16 Oeste 23 Oeste 0 -- -- 94
2019-10-31 02:00:00 14 15 Oeste 24 Sudoeste 0 -- -- 96
2019-10-31 01:00:00 13.8 17 Oeste 30 Sudoeste 0 -- -- 95
2019-10-31 00:00:00 14 18 Oeste 32 Oeste 0 -- -- 93
2019-10-30 23:00:00 14.5 25 Oeste 34 Oeste 0 -- -- 91
2019-10-30 22:00:00 14.5 19 Sudoeste 28 Oeste 0 -- -- 91
2019-10-30 21:00:00 14.2 13 Oeste 20 Oeste 0 -- -- 92
2019-10-30 20:00:00 14 3 Sudoeste 16 Sudoeste 0.4 -- -- 92
2019-10-30 19:00:00 14.4 5 Sudoeste 14 Sur 0 -- -- 87
2019-10-30 18:00:00 14.7 5 Sudeste 14 Sudeste 0.2 -- -- 84
2019-10-30 17:00:00 15.6 8 Oeste 27 Oeste 0 -- -- 80
2019-10-30 16:00:00 15.9 11 Oeste 21 Oeste 0 -- -- 78
2019-10-30 15:00:00 16.4 17 Oeste 25 Sudoeste 0 -- -- 76
2019-10-30 14:00:00 16.4 16 Oeste 22 Oeste 0 -- -- 71
2019-10-30 13:00:00 16.1 11 Oeste 20 Oeste 0 -- -- 75
2019-10-30 12:00:00 16 11 Oeste 17 Oeste 0 -- -- 79
2019-10-30 11:00:00 15.6 5 Oeste 11 Oeste 0 -- -- 79
2019-10-30 10:00:00 15 4 Sudoeste 7 Sudoeste 0 -- -- 81
2019-10-30 09:00:00 12.7 5 Sudoeste 9 Sudoeste 0 -- -- 89
2019-10-30 08:00:00 11.3 0 Calma 5 Sur 0 -- -- 90
2019-10-30 07:00:00 11.1 0 Calma 10 Sudeste 0 -- -- 91
2019-10-30 06:00:00 10.8 4 Este 9 Este 0 -- -- 91
2019-10-30 05:00:00 10.9 3 Sudeste 12 Sur 0 -- -- 89
2019-10-30 04:00:00 11.2 6 Sur 10 Sur 0 -- -- 90
2019-10-30 03:00:00 11.7 6 Sudeste 9 Sudeste 0 -- -- 89
2019-10-30 02:00:00 12 5 Sudeste 9 Sudeste 0 -- -- 88
2019-10-30 01:00:00 12.1 3 Sur 6 Sur 0 -- -- 87
2019-10-30 00:00:00 12.3 4 Sudoeste 8 Sur 0 -- -- 85
2019-10-29 23:00:00 12.5 5 Sudoeste 11 Sur 0 -- -- 82
2019-10-29 22:00:00 12.3 7 Sur 12 Sur 0 -- -- 81
2019-10-29 21:00:00 12.6 8 Sur 12 Sur 0 -- -- 79
2019-10-29 20:00:00 12.7 4 Sur 9 Sur 0 -- -- 79
2019-10-29 19:00:00 13.6 3 Sudoeste 15 Sudoeste 0 -- -- 71
2019-10-29 18:00:00 14.8 9 Oeste 19 Oeste 0 -- -- 73
2019-10-29 17:00:00 16.7 12 Oeste 21 Oeste 0 -- -- 63
2019-10-29 16:00:00 17 9 Oeste 17 Oeste 0 -- -- 67
2019-10-29 15:00:00 16.5 7 Oeste 17 Oeste 0 -- -- 70
2019-10-29 14:00:00 15.9 8 Oeste 13 Oeste 0 -- -- 77
2019-10-29 13:00:00 14.7 4 Noroeste 12 Oeste 0 -- -- 83
2019-10-29 12:00:00 13.9 4 Noroeste 14 Oeste 0 -- -- 91
2019-10-29 11:00:00 12.8 4 Noroeste 15 Oeste 0 -- -- 94
2019-10-29 10:00:00 12.1 12 Oeste 17 Oeste 0.6 -- -- 96
2019-10-29 09:00:00 11.9 0 Calma 4 Sudeste 0.8 -- -- 95
2019-10-29 08:00:00 11.6 2 Sudeste 5 Sudeste 0 -- -- 91
2019-10-29 07:00:00 10.9 0 Calma 6 Sudeste 0 -- -- 91
2019-10-29 06:00:00 10 3 Sudeste 5 Sudeste 0 -- -- 91
2019-10-29 05:00:00 9.4 3 Sur 4 Sur 0 -- -- 90
2019-10-29 04:00:00 9.5 0 Calma 8 Sur 0 -- -- 89
2019-10-29 03:00:00 10.1 5 Sur 8 Sur 0 -- -- 89
2019-10-29 02:00:00 10.4 3 Sur 10 Sudeste 0 -- -- 86
2019-10-29 01:00:00 11.5 7 Sudeste 10 Este 0 -- -- 84
2019-10-29 00:00:00 11.6 3 Sur 13 Sudoeste 0 -- -- 85
2019-10-28 23:00:00 11.2 7 Sur 14 Sur 0 -- -- 82
2019-10-28 22:00:00 12 8 Sudoeste 11 Sur 0 -- -- 78
2019-10-28 21:00:00 12.7 0 Calma 11 Sudoeste 0 -- -- 80
2019-10-28 20:00:00 13.2 4 Sudoeste 15 Oeste 0 -- -- 78
2019-10-28 19:00:00 14.7 13 Oeste 16 Oeste 0 -- -- 75
2019-10-28 18:00:00 16.4 12 Oeste 20 Oeste 0 -- -- 63
2019-10-28 17:00:00 18.6 14 Oeste 21 Oeste 0 -- -- 56
2019-10-28 16:00:00 19.1 14 Oeste 21 Oeste 0 -- -- 62
2019-10-28 15:00:00 19.7 14 Oeste 22 Oeste 0 -- -- 55
2019-10-28 14:00:00 19.9 6 Oeste 16 Oeste 0 -- -- 49
2019-10-28 13:00:00 19.4 10 Noroeste 17 Oeste 0 -- -- 52
2019-10-28 12:00:00 18.8 7 Noroeste 12 Noroeste 0 -- -- 56
2019-10-28 11:00:00 18.2 5 Norte 10 Noroeste 0 -- -- 56
2019-10-28 10:00:00 16.2 3 Este 8 Sur 0 -- -- 64
2019-10-28 09:00:00 11.3 3 Sur 8 Sur 0 -- -- 80
2019-10-28 08:00:00 9.9 4 Sur 6 Sur 0 -- -- 83
2019-10-28 07:00:00 11.5 0 Calma 10 Oeste 0 -- -- 75
2019-10-28 06:00:00 12.8 3 Sur 12 Sudeste 0 -- -- 70
2019-10-28 05:00:00 13.3 6 Sudeste 12 Sudeste 0 -- -- 66
2019-10-28 04:00:00 12.7 4 Sur 17 Este 0 -- -- 74
2019-10-28 03:00:00 12.4 5 Sur 11 Este 0 -- -- 76
2019-10-28 02:00:00 12.2 5 Sur 12 Sur 0 -- -- 74
2019-10-28 01:00:00 12.7 2 Sur 10 Sudoeste 0 -- -- 73
2019-10-28 00:00:00 12.9 6 Sudoeste 11 Sur 0 -- -- 76
2019-10-27 23:00:00 13.1 3 Sur 13 Sudeste 0 -- -- 76
2019-10-27 22:00:00 13.6 7 Sudeste 11 Sudeste 0 -- -- 72
2019-10-27 21:00:00 14.4 2 Sur 10 Sudeste 0 -- -- 70
2019-10-27 20:00:00 14.6 2 Este 5 Este 0 -- -- 71
2019-10-27 19:00:00 15.8 3 Este 7 Este 0 -- -- 68
2019-10-27 18:00:00 18.1 3 Sur 12 Sudeste 0 -- -- 57
2019-10-27 17:00:00 19.3 5 Sudeste 14 Nordeste 0 -- -- 49
2019-10-27 16:00:00 20.1 8 Nordeste 10 Nordeste 0 -- -- 42
2019-10-27 15:00:00 20.5 4 Norte 10 Este 0 -- -- 40
2019-10-27 14:00:00 20.3 5 Este 11 Este 0 -- -- 45
2019-10-27 13:00:00 19.1 4 Nordeste 8 Sudeste 0 -- -- 49
2019-10-27 12:00:00 19.5 2 Norte 14 Sudeste 0 -- -- 45
2019-10-27 11:00:00 16.8 11 Sudeste 22 Sudeste 0 -- -- 60
2019-10-27 10:00:00 16.2 14 Sudeste 21 Sudeste 0 -- -- 63
2019-10-27 09:00:00 12.5 4 Este 11 Oeste 0 -- -- 77
2019-10-27 08:00:00 8.8 4 Sudeste 18 Sudeste 0 -- -- 85
2019-10-27 07:00:00 8.9 11 Sudeste 15 Este 0 -- -- 82
2019-10-27 06:00:00 8.1 3 Sur 9 Sudeste 0 -- -- 86
2019-10-27 05:00:00 7.9 0 Calma 8 Sur 0 -- -- 85
2019-10-27 04:00:00 9 4 Sudeste 9 Sur 0 -- -- 81
2019-10-27 03:00:00 8.7 4 Sur 7 Sur 0 -- -- 82
2019-10-27 02:00:00 8.6 5 Sur 7 Sur 0 -- -- 84
2019-10-27 01:00:00 9.7 4 Sur 8 Sudoeste 0 -- -- 77
2019-10-27 00:00:00 10.7 5 Sur 10 Sur 0 -- -- 73
2019-10-26 23:00:00 12.3 8 Sudoeste 12 Sur 0 -- -- 69
2019-10-26 22:00:00 13.6 5 Sur 15 Sudeste 0 -- -- 67
2019-10-26 21:00:00 14.9 6 Sur 18 Sudeste 0 -- -- 64
2019-10-26 20:00:00 16.6 9 Sudeste 17 Sudeste 0 -- -- 61
2019-10-26 19:00:00 18.9 9 Sudeste 23 Sudeste 0 -- -- 53
2019-10-26 18:00:00 20.8 12 Sudeste 20 Sudeste 0 -- -- 46
2019-10-26 17:00:00 22 11 Sudeste 22 Sudeste 0 -- -- 42
2019-10-26 16:00:00 22.3 10 Sudeste 18 Sudeste 0 -- -- 40
2019-10-26 15:00:00 22.4 9 Sudeste 18 Sudeste 0 -- -- 37
2019-10-26 14:00:00 21.6 8 Sur 18 Sudeste 0 -- -- 42
2019-10-26 13:00:00 20.3 8 Sudeste 24 Sudeste 0 -- -- 47
2019-10-26 12:00:00 17.7 15 Sudeste 28 Sudeste 0 -- -- 56
2019-10-26 11:00:00 15.4 14 Sudeste 24 Sudeste 0 -- -- 62
2019-10-26 10:00:00 12.6 5 Sur 14 Sudeste 0 -- -- 72
2019-10-26 09:00:00 10.1 4 Sur 20 Sudeste 0 -- -- 76
2019-10-26 08:00:00 8.7 9 Sudeste 15 Sudeste 0 -- -- 80
2019-10-26 07:00:00 9.6 7 Sudeste 18 Sur 0 -- -- 75
2019-10-26 06:00:00 8.1 4 Sudeste 13 Sudeste 0 -- -- 81
2019-10-26 05:00:00 7.2 5 Sur 12 Sudeste 0 -- -- 84
2019-10-26 04:00:00 7.8 3 Sudeste 9 Sudoeste 0 -- -- 85
2019-10-26 03:00:00 9 4 Sur 9 Sudeste 0 -- -- 80
2019-10-26 02:00:00 9.2 4 Sudeste 9 Sudeste 0 -- -- 82
2019-10-26 01:00:00 9.7 4 Sur 10 Sudeste 0 -- -- 85
2019-10-26 00:00:00 10.7 6 Sudeste 12 Sudeste 0 -- -- 82
2019-10-25 23:00:00 11.6 8 Sudeste 12 Sudeste 0 -- -- 78
2019-10-25 22:00:00 12.2 3 Sur 10 Sudeste 0 -- -- 78
2019-10-25 21:00:00 13 3 Sudeste 6 Sudeste 0 -- -- 77
2019-10-25 20:00:00 15.2 0 Calma 6 Sur 0 -- -- 69
2019-10-25 19:00:00 17.9 3 Noroeste 8 Oeste 0 -- -- 62
2019-10-25 18:00:00 19.1 3 Noroeste 11 Noroeste 0 -- -- 51
2019-10-25 17:00:00 19.6 6 Noroeste 14 Oeste 0 -- -- 51
2019-10-25 16:00:00 19.5 8 Noroeste 14 Noroeste 0 -- -- 52
2019-10-25 15:00:00 19.1 6 Noroeste 14 Noroeste 0 -- -- 57
2019-10-25 14:00:00 18.2 8 Noroeste 14 Noroeste 0 -- -- 66
2019-10-25 13:00:00 17.7 4 Noroeste 9 Noroeste 0 -- -- 71
2019-10-25 12:00:00 16 4 Oeste 12 Sudeste 0 -- -- 77
2019-10-25 11:00:00 14.3 6 Sudeste 13 Sudeste 0 -- -- 75
2019-10-25 10:00:00 9.6 8 Sudeste 13 Sudeste 0 -- -- 90
2019-10-25 09:00:00 6.3 5 Sur 13 Este 0 -- -- 97
2019-10-25 08:00:00 5.9 3 Sudeste 6 Sudeste 0 -- -- 97
2019-10-25 07:00:00 6.2 0 Calma 6 Sur 0 -- -- 95
2019-10-25 06:00:00 7.5 7 Sudeste 19 Sudeste 0 -- -- 96
2019-10-25 05:00:00 8.1 12 Este 17 Sudeste 0 -- -- 97
2019-10-25 04:00:00 8 10 Sudeste 15 Sudeste 0 -- -- 98
2019-10-25 03:00:00 7.6 9 Este 13 Este 0 -- -- 96
2019-10-25 02:00:00 9.1 5 Sudeste 9 Sudeste 0 -- -- 92
2019-10-25 01:00:00 10.5 4 Sudeste 11 Sudeste 0 -- -- 89
2019-10-25 00:00:00 10.2 3 Sudeste 7 Sudeste 0 -- -- 92
2019-10-24 23:00:00 10.1 3 Sur 8 Sudeste 0 -- -- 95
2019-10-24 22:00:00 9.3 5 Sudeste 8 Sudeste 0 -- -- 95
2019-10-24 21:00:00 9.9 0 Calma 8 Oeste 0 -- -- 91
2019-10-24 20:00:00 10.8 8 Oeste 16 Oeste 0 -- -- 90
2019-10-24 19:00:00 12.7 8 Oeste 19 Noroeste 0 -- -- 83
2019-10-24 18:00:00 13.1 17 Oeste 28 Oeste 0 -- -- 79
2019-10-24 17:00:00 13.6 21 Oeste 30 Oeste 0 -- -- 79
2019-10-24 16:00:00 13.2 17 Oeste 30 Oeste 0 -- -- 79
2019-10-24 15:00:00 13 19 Oeste 27 Oeste 0 -- -- 79
2019-10-24 14:00:00 12.1 17 Oeste 26 Oeste 0 -- -- 75
2019-10-24 13:00:00 10.3 12 Sudoeste 33 Oeste 0 -- -- 80
2019-10-24 12:00:00 9.1 23 Oeste 32 Oeste 0 -- -- 85
2019-10-24 11:00:00 7.5 21 Oeste 31 Oeste 0 -- -- 89
2019-10-24 10:00:00 6.6 22 Oeste 31 Oeste 0 -- -- 93
2019-10-24 09:00:00 5.4 16 Oeste 24 Oeste 0 -- -- 96
2019-10-24 08:00:00 5.7 14 Oeste 18 Oeste 0 -- -- 98
2019-10-24 07:00:00 5.3 6 Sudoeste 18 Oeste 0 -- -- 98
2019-10-24 06:00:00 5.1 13 Oeste 19 Oeste 0 -- -- 98
2019-10-24 05:00:00 5.8 5 Oeste 23 Oeste 0 -- -- 95
2019-10-24 04:00:00 6.6 18 Oeste 23 Oeste 0.8 -- -- 99
2019-10-24 03:00:00 6.7 15 Oeste 23 Oeste 0.8 -- -- 98
2019-10-24 02:00:00 6.8 11 Oeste 27 Oeste 0.6 -- -- 98
2019-10-24 01:00:00 7 19 Oeste 28 Oeste 0.8 -- -- 98
2019-10-24 00:00:00 7.2 15 Oeste 24 Oeste 0 -- -- 95
2019-10-23 23:00:00 7.4 19 Oeste 29 Oeste 0 -- -- 95
2019-10-23 22:00:00 7.4 21 Oeste 33 Oeste 0 -- -- 96
2019-10-23 21:00:00 7.5 23 Oeste 29 Oeste 0 -- -- 97
2019-10-23 20:00:00 7.5 23 Oeste 32 Oeste 0 -- -- 98
2019-10-23 19:00:00 7.5 19 Oeste 30 Oeste 0.4 -- -- 98
2019-10-23 18:00:00 7.5 15 Noroeste 32 Oeste 0.2 -- -- 99
2019-10-23 17:00:00 7.8 18 Noroeste 32 Oeste 0.2 -- -- 98
2019-10-23 16:00:00 8.2 15 Noroeste 37 Noroeste 0 -- -- 99
2019-10-23 15:00:00 8.2 24 Noroeste 37 Noroeste 0.2 -- -- 98
2019-10-23 14:00:00 8.4 10 Norte 17 Noroeste 0 -- -- 99
2019-10-23 13:00:00 7.6 10 Noroeste 17 Noroeste 0.2 -- -- 100
2019-10-23 12:00:00 7.1 10 Noroeste 26 Oeste 0 -- -- 100
2019-10-23 11:00:00 6.5 16 Oeste 26 Oeste 0.6 -- -- 99
2019-10-23 10:00:00 6.2 17 Noroeste 38 Oeste 0.8 -- -- 99
2019-10-23 09:00:00 6.1 22 Oeste 33 Oeste 1.6 -- -- 99
2019-10-23 08:00:00 6 20 Oeste 33 Oeste 3.2 -- -- 99
2019-10-23 07:00:00 6 20 Oeste 32 Oeste 2.8 -- -- 99
2019-10-23 06:00:00 5.9 23 Oeste 31 Oeste 0.8 -- -- 99
2019-10-23 05:00:00 5.6 20 Oeste 38 Oeste 0.2 -- -- 99
2019-10-23 04:00:00 5.7 22 Oeste 30 Oeste 0.6 -- -- 99
2019-10-23 03:00:00 5.7 18 Oeste 32 Oeste 0.8 -- -- 99
2019-10-23 02:00:00 6 19 Noroeste 30 Noroeste 1 -- -- 98
2019-10-23 01:00:00 6.1 22 Noroeste 38 Noroeste 1 -- -- 98
2019-10-23 00:00:00 6.4 13 Noroeste 28 Oeste 1.2 -- -- 98
2019-10-22 23:00:00 6.3 12 Noroeste 23 Noroeste 1.6 -- -- 98
2019-10-22 22:00:00 6.4 10 Noroeste 19 Oeste 0.8 -- -- 96
2019-10-22 21:00:00 6.9 12 Norte 28 Noroeste 0 -- -- 91
2019-10-22 20:00:00 7.4 14 Oeste 18 Oeste 0 -- -- 94
2019-10-22 19:00:00 7.5 6 Oeste 13 Norte 0 -- -- 91
2019-10-22 18:00:00 7.4 8 Noroeste 22 Noroeste 0 -- -- 91
2019-10-22 17:00:00 7.7 7 Noroeste 15 Norte 0 -- -- 90
2019-10-22 16:00:00 7.7 11 Norte 22 Norte 0 -- -- 86
2019-10-22 15:00:00 7.2 8 Norte 15 Norte 0 -- -- 93
2019-10-22 14:00:00 5.3 2 Norte 10 Noroeste 0 -- -- 99
2019-10-22 13:00:00 4.3 4 Noroeste 10 Oeste 0 -- -- 100
2019-10-22 12:00:00 3.3 2 Noroeste 12 Oeste 0 -- -- 100
2019-10-22 11:00:00 2.4 6 Oeste 9 Noroeste 0 -- -- 100
2019-10-22 10:00:00 1.7 4 Oeste 11 Oeste 0 -- -- 99
2019-10-22 09:00:00 0.5 4 Oeste 6 Oeste 0 -- -- 98
2019-10-22 08:00:00 0.1 2 Sur 5 Noroeste 0.2 -- -- 97
2019-10-22 07:00:00 0.1 2 Norte 8 Noroeste 0 -- -- 96
2019-10-22 06:00:00 0.4 0 Calma 4 Sudeste 0 -- -- 96
2019-10-22 05:00:00 0.6 0 Calma 5 Sur 0 -- -- 96
2019-10-22 04:00:00 1.1 0 Calma 5 Sudoeste 0 -- -- 94
2019-10-22 03:00:00 1.7 2 Sur 5 Sudeste 0 -- -- 93
2019-10-22 02:00:00 2.7 4 Sudeste 16 Sudeste 0 -- -- 92
2019-10-22 01:00:00 3.9 12 Sudeste 17 Sudeste 0 -- -- 94
2019-10-22 00:00:00 3.5 6 Este 9 Sudeste 0 -- -- 94
2019-10-21 23:00:00 4.7 4 Este 10 Este 0 -- -- 92
2019-10-21 22:00:00 6.3 0 Calma 13 Oeste 0 -- -- 86
2019-10-21 21:00:00 7.2 4 Sudeste 8 Sudeste 0 -- -- 83
2019-10-21 20:00:00 7.6 4 Sudeste 13 Este 0 -- -- 82
2019-10-21 19:00:00 8.8 8 Este 17 Nordeste 0 -- -- 76
2019-10-21 18:00:00 9.4 10 Nordeste 22 Nordeste 0 -- -- 72
2019-10-21 17:00:00 9.4 4 Norte 10 Noroeste 0 -- -- 74
2019-10-21 16:00:00 8.6 10 Oeste 29 Oeste 1.4 -- -- 77
2019-10-21 15:00:00 11.3 9 Noroeste 21 Oeste 0 -- -- 64
2019-10-21 14:00:00 12.7 4 Sudeste 13 Sudeste 0 -- -- 52
2019-10-21 13:00:00 11.7 9 Sudeste 17 Sudeste 0 -- -- 64
2019-10-21 12:00:00 10.2 8 Sudeste 15 Sudeste 0 -- -- 72
2019-10-21 11:00:00 8.2 5 Sur 14 Sudeste 0 -- -- 83
2019-10-21 10:00:00 2.6 0 Calma 4 Sur 0 -- -- 95
2019-10-21 09:00:00 1.1 4 Sur 9 Sudeste 0 -- -- 97
2019-10-21 08:00:00 1.3 3 Sur 7 Sur 0 -- -- 96
2019-10-21 07:00:00 1.2 5 Sur 7 Sur 0.2 -- -- 96
2019-10-21 06:00:00 2 3 Sur 6 Sudeste 0 -- -- 96
2019-10-21 05:00:00 1.9 2 Sur 9 Sur 0 -- -- 95
2019-10-21 04:00:00 2.3 5 Sur 10 Sur 0 -- -- 95
2019-10-21 03:00:00 2.7 4 Sur 8 Sudoeste 0 -- -- 94
2019-10-21 02:00:00 3.4 4 Sur 9 Sur 0 -- -- 95
2019-10-21 01:00:00 3.2 0 Calma 23 Oeste 0 -- -- 94
2019-10-21 00:00:00 3.7 2 Sudeste 6 Este 0 -- -- 93
2019-10-20 23:00:00 4.5 3 Sur 8 Sudeste 0 -- -- 94
2019-10-20 22:00:00 4.6 4 Sur 10 Sur 0 -- -- 94
2019-10-20 21:00:00 5.4 6 Sudoeste 9 Sudoeste 0 -- -- 93
2019-10-20 20:00:00 6.2 4 Sur 11 Oeste 0 -- -- 94
2019-10-20 19:00:00 6.4 10 Oeste 30 Oeste 0.4 -- -- 94
2019-10-20 18:00:00 8.3 9 Noroeste 19 Noroeste 0 -- -- 83
2019-10-20 17:00:00 8.1 13 Noroeste 31 Noroeste 0 -- -- 82
2019-10-20 16:00:00 7.4 17 Noroeste 36 Noroeste 0 -- -- 84
2019-10-20 15:00:00 6.8 16 Noroeste 33 Noroeste 0.2 -- -- 92
2019-10-20 14:00:00 7 13 Noroeste 31 Noroeste 0.2 -- -- 93
2019-10-20 13:00:00 6.9 16 Oeste 27 Oeste 0.4 -- -- 94
2019-10-20 12:00:00 6.1 8 Noroeste 26 Oeste 0.6 -- -- 95
2019-10-20 11:00:00 6.8 20 Oeste 28 Oeste 0 -- -- 92
2019-10-20 10:00:00 6.4 18 Oeste 32 Oeste 0.8 -- -- 95
2019-10-20 09:00:00 6.5 14 Oeste 28 Oeste 0 -- -- 95
2019-10-20 08:00:00 6.8 6 Sudoeste 14 Sudoeste 0 -- -- 88
2019-10-20 07:00:00 6.1 6 Sudoeste 16 Sudoeste 0 -- -- 90
2019-10-20 06:00:00 5.6 9 Sur 15 Sur 0 -- -- 90
2019-10-20 05:00:00 6.4 6 Oeste 16 Sudoeste 0 -- -- 89
2019-10-20 04:00:00 7 6 Sudoeste 21 Oeste 0 -- -- 89
2019-10-20 03:00:00 7.2 14 Oeste 26 Oeste 0 -- -- 91
2019-10-20 02:00:00 7.7 16 Oeste 41 Oeste 0 -- -- 91
2019-10-20 01:00:00 8.9 26 Oeste 45 Sudoeste 0 -- -- 87
2019-10-20 00:00:00 10.7 35 Oeste 45 Oeste 0 -- -- 84
2019-10-19 23:00:00 11.9 8 Oeste 12 Sur 0 -- -- 88
2019-10-19 22:00:00 11.6 7 Sur 23 Sudeste 0 -- -- 86
2019-10-19 21:00:00 11.8 21 Sudeste 45 Sur 0.8 -- -- 84
2019-10-19 20:00:00 13 20 Sur 44 Sudeste 0 -- -- 79
2019-10-19 19:00:00 13.5 18 Sur 41 Sudeste 0 -- -- 77
2019-10-19 18:00:00 15.1 20 Sur 44 Sur 0 -- -- 65
2019-10-19 17:00:00 16.4 26 Sur 46 Sur 0 -- -- 58
2019-10-19 16:00:00 19.3 15 Sur 27 Sudoeste 0 -- -- 50
2019-10-19 15:00:00 18.5 9 Sudeste 28 Sudeste 0 -- -- 47
2019-10-19 14:00:00 17.2 10 Sudeste 25 Sudeste 0 -- -- 48
2019-10-19 13:00:00 16.2 12 Sudeste 22 Sudeste 0 -- -- 54
2019-10-19 12:00:00 13.7 7 Sudeste 12 Sudeste 0 -- -- 63
2019-10-19 11:00:00 10.5 3 Sudoeste 9 Sudoeste 0 -- -- 77
2019-10-19 10:00:00 9.8 5 Sudoeste 16 Sudeste 0 -- -- 80
2019-10-19 09:00:00 9.4 5 Sudeste 13 Sur 0 -- -- 80
2019-10-19 08:00:00 9.5 4 Sur 9 Sudeste 0 -- -- 83
2019-10-19 07:00:00 9.8 3 Sur 12 Sudoeste 0 -- -- 84
2019-10-19 06:00:00 10 9 Sudoeste 21 Sudoeste 0 -- -- 82
2019-10-19 05:00:00 10.2 12 Sudoeste 28 Sudoeste 0 -- -- 83
2019-10-19 04:00:00 9.9 7 Sudoeste 14 Sudoeste 0 -- -- 87
2019-10-19 03:00:00 9.8 9 Sudoeste 17 Sudoeste 0 -- -- 85
2019-10-19 02:00:00 9.8 6 Sudoeste 26 Oeste 0 -- -- 86
2019-10-19 01:00:00 10.6 20 Oeste 25 Oeste 0 -- -- 85
2019-10-19 00:00:00 11.3 9 Sudoeste 14 Sudoeste 0 -- -- 80
2019-10-18 23:00:00 12.3 7 Sudoeste 32 Oeste 0 -- -- 78
2019-10-18 22:00:00 13.4 23 Oeste 32 Sudoeste 0 -- -- 75
2019-10-18 21:00:00 13.5 8 Oeste 12 Noroeste 0 -- -- 85
2019-10-18 20:00:00 13.7 3 Norte 12 Noroeste 0 -- -- 84
2019-10-18 19:00:00 15.1 7 Noroeste 12 Noroeste 0 -- -- 80
2019-10-18 18:00:00 15.5 6 Noroeste 15 Noroeste 0 -- -- 79
2019-10-18 17:00:00 16.1 7 Noroeste 19 Noroeste 0 -- -- 78
2019-10-18 16:00:00 16 12 Oeste 24 Noroeste 0 -- -- 80
2019-10-18 15:00:00 16.2 15 Noroeste 28 Noroeste 0 -- -- 76
2019-10-18 14:00:00 16.8 12 Oeste 21 Oeste 0 -- -- 78
2019-10-18 13:00:00 15.4 12 Oeste 20 Oeste 0 -- -- 86
2019-10-18 12:00:00 14.5 9 Noroeste 18 Noroeste 0 -- -- 89
2019-10-18 11:00:00 14.9 5 Noroeste 11 Oeste 0 -- -- 90
2019-10-18 10:00:00 13.7 0 Calma 18 Oeste 0 -- -- 94
2019-10-18 09:00:00 13.6 15 Oeste 34 Oeste 0 -- -- 91
2019-10-18 08:00:00 14.2 19 Oeste 29 Oeste 0 -- -- 92
2019-10-18 07:00:00 14.1 6 Oeste 9 Oeste 0 -- -- 89
2019-10-18 06:00:00 13.6 2 Sur 8 Este 0 -- -- 88
2019-10-18 05:00:00 13.5 2 Sudoeste 10 Este 0 -- -- 89
2019-10-18 04:00:00 13.1 2 Sudeste 6 Sudeste 0 -- -- 89
2019-10-18 03:00:00 13.3 3 Este 11 Sur 0 -- -- 88
2019-10-18 02:00:00 14.1 3 Sur 13 Sur 0 -- -- 84
2019-10-18 01:00:00 14.6 6 Sur 14 Sur 0 -- -- 84
2019-10-18 00:00:00 14.2 3 Sudeste 13 Sudoeste 0.4 -- -- 89